Home > Products > Valid Products > TAF

000
FTUS44 KBMX 310520
TAFMGM
TAF
KMGM 310520Z 3106/0106 26003KT P6SM SCT070
      TEMPO 3109/3112 4SM BR
     FM311500 35010KT P6SM SCT040
     FM311900 02010KT P6SM VCTS SCT040CB=



000
FTUS44 KBMX 310520
TAFBHM
TAF
KBHM 310520Z 3106/0106 01005KT P6SM SKC
     FM311500 02012KT P6SM SKC=



000
FTUS44 KBMX 310520
TAFEET
TAF
KEET 310520Z 3106/0106 VRB05KT P6SM SKC
     FM311500 01010KT P6SM SKC=



000
FTUS44 KBMX 310520
TAFTOI
TAF
KTOI 310520Z 3106/0106 00000KT P6SM SKC
      TEMPO 3109/3112 4SM BR
     FM311500 35008KT P6SM SCT040
     FM311900 02010KT P6SM VCTS SCT040CB=



000
FTUS44 KBMX 310520
TAFTCL
TAF
KTCL 310520Z 3106/0106 36009KT P6SM SKC
     FM311500 01012KT P6SM SKC=



000
FTUS44 KBMX 310520
TAFTOI
TAF
KTOI 310520Z 3106/0106 00000KT P6SM SKC
      TEMPO 3109/3112 4SM BR
     FM311500 35008KT P6SM SCT040
     FM311900 02010KT P6SM VCTS SCT040CB=



000
FTUS44 KBMX 310520
TAFEET
TAF
KEET 310520Z 3106/0106 VRB05KT P6SM SKC
     FM311500 01010KT P6SM SKC=



000
FTUS44 KBMX 310520
TAFTCL
TAF
KTCL 310520Z 3106/0106 36009KT P6SM SKC
     FM311500 01012KT P6SM SKC=



000
FTUS44 KBMX 310520
TAFANB
TAF
KANB 310520Z 3106/0106 02008KT P6SM SKC
     FM311500 01010KT P6SM SKC=



000
FTUS44 KBMX 310520
TAFANB
TAF
KANB 310520Z 3106/0106 02008KT P6SM SKC
     FM311500 01010KT P6SM SKC=



000
FTUS44 KBMX 310520
TAFBHM
TAF
KBHM 310520Z 3106/0106 01005KT P6SM SKC
     FM311500 02012KT P6SM SKC=



000
FTUS44 KBMX 310520
TAFMGM
TAF
KMGM 310520Z 3106/0106 26003KT P6SM SCT070
      TEMPO 3109/3112 4SM BR
     FM311500 35010KT P6SM SCT040
     FM311900 02010KT P6SM VCTS SCT040CB=



000
FTUS44 KBMX 302326
TAFEET
TAF
KEET 302326Z 3100/3124 35007KT P6SM SKC=



000
FTUS44 KBMX 302326
TAFMGM
TAF
KMGM 302326Z 3100/3124 VRB03KT P6SM FEW050 BKN250
      TEMPO 3109/3112 4SM BR
     FM311500 35010KT P6SM SKC=



000
FTUS44 KBMX 302326
TAFTOI
TAF
KTOI 302326Z 3100/3124 VRB03KT P6SM VCTS SCT050CB
      TEMPO 3100/3101 2SM TSRA BKN035CB
     FM310100 VRB02KT P6SM BKN250
      TEMPO 3109/3112 4SM BR
     FM311500 35010KT P6SM FEW030=



000
FTUS44 KBMX 302326
TAFBHM
TAF
KBHM 302326Z 3100/3124 35008KT P6SM SKC=



000
FTUS44 KBMX 302326
TAFTCL
TAF
KTCL 302326Z 3100/3124 35008KT P6SM SKC=



000
FTUS44 KBMX 302326
TAFANB
TAF
KANB 302326Z 3100/3124 35007KT P6SM SKC=



000
FTUS44 KBMX 302326
TAFEET
TAF
KEET 302326Z 3100/3124 35007KT P6SM SKC=



000
FTUS44 KBMX 302326
TAFMGM
TAF
KMGM 302326Z 3100/3124 VRB03KT P6SM FEW050 BKN250
      TEMPO 3109/3112 4SM BR
     FM311500 35010KT P6SM SKC=



000
FTUS44 KBMX 302326
TAFTCL
TAF
KTCL 302326Z 3100/3124 35008KT P6SM SKC=



000
FTUS44 KBMX 302326
TAFTOI
TAF
KTOI 302326Z 3100/3124 VRB03KT P6SM VCTS SCT050CB
      TEMPO 3100/3101 2SM TSRA BKN035CB
     FM310100 VRB02KT P6SM BKN250
      TEMPO 3109/3112 4SM BR
     FM311500 35010KT P6SM FEW030=



000
FTUS44 KBMX 302326
TAFBHM
TAF
KBHM 302326Z 3100/3124 35008KT P6SM SKC=



000
FTUS44 KBMX 302326
TAFANB
TAF
KANB 302326Z 3100/3124 35007KT P6SM SKC=



000
FTUS44 KBMX 302137 AAB
TAFEET
TAF AMD
KEET 302137Z 3022/3118 35008KT P6SM FEW050
     FM310100 35005KT P6SM SKC=



000
FTUS44 KBMX 302121 AAB
TAFANB
TAF AMD
KANB 302121Z 3021/3118 36010KT P6SM FEW050
     FM310100 02006KT P6SM SKC=



000
FTUS44 KBMX 302121 AAB
TAFANB
TAF AMD
KANB 302121Z 3021/3118 36010KT P6SM FEW050
     FM310100 02006KT P6SM SKC=



000
FTUS44 KBMX 302120 AAB
TAFTCL
TAF AMD
KTCL 302120Z 3021/3118 35010KT P6SM FEW050
     FM310100 01006KT P6SM SKC=



000
FTUS44 KBMX 302106 AAB
TAFBHM
TAF AMD
KBHM 302106Z 3021/3118 35010KT P6SM FEW050
     FM310100 01006KT P6SM SKC=



000
FTUS44 KBMX 302020 AAA
TAFTCL
TAF AMD
KTCL 302020Z 3020/3118 35010KT P6SM VCTS SCT050CB
     FM310000 01006KT P6SM SCT250=



000
FTUS44 KBMX 302019 AAA
TAFANB
TAF AMD
KANB 302019Z 3020/3118 36008KT P6SM VCTS SCT050CB
     FM310000 02006KT P6SM SKC=



000
FTUS44 KBMX 302019 AAA
TAFEET
TAF AMD
KEET 302019Z 3020/3118 35007KT P6SM VCTS SCT050CB
     FM310000 35005KT P6SM SKC=



000
FTUS44 KBMX 302014 AAA
TAFBHM
TAF AMD
KBHM 302014Z 3020/3118 35008KT P6SM VCTS SCT050CB
     FM310000 01006KT P6SM SKC=



000
FTUS44 KBMX 301720
TAFTCL
TAF
KTCL 301720Z 3018/3118 02006KT P6SM VCTS SCT040CB SCT200
      TEMPO 3020/3022 VRB10G20KT 3SM TSRA BKN040CB
     FM302200 34009KT P6SM VCTS BKN045CB BKN100
     FM310000 02006KT P6SM SCT250=



000
FTUS44 KBMX 301720
TAFANB
TAF
KANB 301720Z 3018/3118 36006KT P6SM SCT035
     FM301900 36010KT P6SM VCTS SCT050CB SCT200
      TEMPO 3019/3021 VRB10G20KT 3SM TSRA BKN040CB
     FM310200 02006KT P6SM SCT200=



000
FTUS44 KBMX 301720
TAFBHM
TAF
KBHM 301720Z 3018/3118 02008KT P6SM VCTS SCT040CB SCT200
      TEMPO 3019/3021 VRB10G20KT 3SM TSRA BKN040CB
     FM302200 36012KT P6SM VCTS BKN045CB BKN100
     FM310000 01006KT P6SM SCT250=



000
FTUS44 KBMX 301720
TAFANB
TAF
KANB 301720Z 3018/3118 36006KT P6SM SCT035
     FM301900 36010KT P6SM VCTS SCT050CB SCT200
      TEMPO 3019/3021 VRB10G20KT 3SM TSRA BKN040CB
     FM310200 02006KT P6SM SCT200=



000
FTUS44 KBMX 301720
TAFMGM
TAF
KMGM 301720Z 3018/3118 34008KT P6SM VCTS SCT040CB
      TEMPO 3022/3024 VRB10G20KT 3SM TSRA BKN040CB BKN100
     FM310000 36005KT P6SM VCTS SCT050CB SCT150
     FM310300 35005KT P6SM SCT200=



000
FTUS44 KBMX 301720
TAFBHM
TAF
KBHM 301720Z 3018/3118 02008KT P6SM VCTS SCT040CB SCT200
      TEMPO 3019/3021 VRB10G20KT 3SM TSRA BKN040CB
     FM302200 36012KT P6SM VCTS BKN045CB BKN100
     FM310000 01006KT P6SM SCT250=



000
FTUS44 KBMX 301720
TAFEET
TAF
KEET 301720Z 3018/3118 34006KT P6SM VCTS SCT040CB SCT200
      TEMPO 3020/3022 VRB10G20KT 3SM TSRA BKN040CB
     FM302200 34009KT P6SM VCTS BKN045CB BKN100
     FM310000 35005KT P6SM SCT250=



000
FTUS44 KBMX 301720
TAFTOI
TAF
KTOI 301720Z 3018/3118 VRB05KT P6SM VCTS SCT040CB
      TEMPO 3022/3024 VRB10G20KT 3SM TSRA BKN040CB BKN100
     FM310000 36005KT P6SM VCTS SCT050CB SCT150
     FM310300 35005KT P6SM SCT200=



000
FTUS44 KBMX 301133 CCA
TAFTOI
TAF COR
KTOI 301133Z 3012/3112 03006KT P6SM SCT040 SCT200
     FM301800 36006KT P6SM VCTS SCT040CB
      TEMPO 3020/3023 3SM TSRA
     FM310100 01005KT P6SM SCT200=



000
FTUS44 KBMX 301133 CCA
TAFTOI
TAF COR
KTOI 301133Z 3012/3112 03006KT P6SM SCT040 SCT200
     FM301800 36006KT P6SM VCTS SCT040CB
      TEMPO 3020/3023 3SM TSRA
     FM310100 01005KT P6SM SCT200=



000
FTUS44 KBMX 301132
TAFBHM
TAF
KBHM 301132Z 3012/3112 36004KT P6SM SCT250
     FM301900 36012KT P6SM VCTS SCT050CB SCT200
     FM302300 02008KT P6SM SCT250=



000
FTUS44 KBMX 301132
TAFTOI
TAF
KTOI 301132Z 3012/3112 00000KT 4SM BR SCT070
     FM301400 03006KT P6SM SCT040 SCT200
     FM301800 36006KT P6SM VCTS SCT040CB
      TEMPO 3020/3023 3SM TSRA
     FM310100 01005KT P6SM SCT200=



000
FTUS44 KBMX 301132
TAFMGM
TAF
KMGM 301132Z 3012/3112 00000KT 4SM BR SCT200
     FM301300 02006KT P6SM SCT040 SCT200
     FM301800 34008KT P6SM VCTS SCT040CB
      TEMPO 3020/3023 3SM TSRA
     FM310100 01005KT P6SM SCT200=



000
FTUS44 KBMX 301132
TAFTCL
TAF
KTCL 301132Z 3012/3112 02003KT P6SM SCT250
     FM301900 36010KT P6SM SCT040 SCT200
     FM310200 36003KT P6SM SCT200=



000
FTUS44 KBMX 301132
TAFANB
TAF
KANB 301132Z 3012/3112 36003KT P6SM SCT250
     FM301900 36010KT P6SM VCTS SCT050CB SCT200
     FM302300 02006KT P6SM SCT200=



000
FTUS44 KBMX 301132
TAFEET
TAF
KEET 301132Z 3012/3112 36003KT P6SM SCT250
     FM301900 35008KT P6SM VCTS SCT050CB SCT200
     FM302300 34004KT P6SM SCT200=



000
FTUS44 KBMX 300520
TAFTCL
TAF
KTCL 300520Z 3006/3106 00000KT P6SM SCT250
      TEMPO 3009/3012 4SM BR
     FM301500 02006KT P6SM SCT040 SCT200
     FM301900 36012KT P6SM SCT200=



000
FTUS44 KBMX 300520
TAFBHM
TAF
KBHM 300520Z 3006/3106 00000KT P6SM SCT250
     FM301500 02006KT P6SM SCT040 SCT200
     FM301900 36012KT P6SM SCT200=



000
FTUS44 KBMX 300520
TAFEET
TAF
KEET 300520Z 3006/3106 00000KT P6SM SCT250
      TEMPO 3011/3012 4SM BR
     FM301500 02006KT P6SM SCT040 SCT200
     FM301900 36010KT P6SM SCT200=



000
FTUS44 KBMX 300520
TAFEET
TAF
KEET 300520Z 3006/3106 00000KT P6SM SCT250
      TEMPO 3011/3012 4SM BR
     FM301500 02006KT P6SM SCT040 SCT200
     FM301900 36010KT P6SM SCT200=



000
FTUS44 KBMX 300520
TAFTOI
TAF
KTOI 300520Z 3006/3106 00000KT P6SM VCSH SCT015 BKN070
     FM300900 00000KT 4SM BR SCT070
     FM301400 03006KT P6SM SCT040 SCT200
     FM301800 02008KT P6SM VCTS SCT040CB=



000
FTUS44 KBMX 300520
TAFANB
TAF
KANB 300520Z 3006/3106 00000KT P6SM SCT250
      TEMPO 3011/3012 4SM BR
     FM301500 03006KT P6SM SCT040 SCT200
     FM301900 35010KT P6SM SCT200=



000
FTUS44 KBMX 300520
TAFTCL
TAF
KTCL 300520Z 3006/3106 00000KT P6SM SCT250
      TEMPO 3009/3012 4SM BR
     FM301500 02006KT P6SM SCT040 SCT200
     FM301900 36012KT P6SM SCT200=



000
FTUS44 KBMX 300520
TAFMGM
TAF
KMGM 300520Z 3006/3106 31003KT P6SM SCT250
     FM300800 00000KT 4SM BR SCT200
     FM301400 03006KT P6SM SCT040 SCT200
     FM301800 34008KT P6SM VCTS SCT040CB=



000
FTUS44 KBMX 300520
TAFTOI
TAF
KTOI 300520Z 3006/3106 00000KT P6SM VCSH SCT015 BKN070
     FM300900 00000KT 4SM BR SCT070
     FM301400 03006KT P6SM SCT040 SCT200
     FM301800 02008KT P6SM VCTS SCT040CB=



000
FTUS44 KBMX 300520
TAFANB
TAF
KANB 300520Z 3006/3106 00000KT P6SM SCT250
      TEMPO 3011/3012 4SM BR
     FM301500 03006KT P6SM SCT040 SCT200
     FM301900 35010KT P6SM SCT200=



000
FTUS44 KBMX 300520
TAFMGM
TAF
KMGM 300520Z 3006/3106 31003KT P6SM SCT250
     FM300800 00000KT 4SM BR SCT200
     FM301400 03006KT P6SM SCT040 SCT200
     FM301800 34008KT P6SM VCTS SCT040CB=



000
FTUS44 KBMX 300520
TAFBHM
TAF
KBHM 300520Z 3006/3106 00000KT P6SM SCT250
     FM301500 02006KT P6SM SCT040 SCT200
     FM301900 36012KT P6SM SCT200=



000
FTUS44 KBMX 292338
TAFBHM
TAF
KBHM 292338Z 3000/3024 00000KT P6SM FEW150 BKN250
     FM301500 02006KT P6SM SCT040 SCT200=



000
FTUS44 KBMX 292338
TAFTCL
TAF
KTCL 292338Z 3000/3024 00000KT P6SM FEW050 BKN100
      TEMPO 3009/3012 4SM BR
     FM301500 01006KT P6SM SCT040 SCT200=



000
FTUS44 KBMX 292338
TAFEET
TAF
KEET 292338Z 3000/3024 35004KT P6SM SCT100
      TEMPO 3011/3012 4SM BR
     FM301500 02006KT P6SM SCT040 SCT200=



000
FTUS44 KBMX 292338
TAFTOI
TAF
KTOI 292338Z 3000/3024 27003KT P6SM VCSH SCT040 SCT100
     FM300200 00000KT P6SM SCT100
      TEMPO 3009/3012 4SM BR
     FM301500 02007KT P6SM SCT040 SCT200
     FM301800 34008KT P6SM VCTS SCT040CB=



000
FTUS44 KBMX 292338
TAFANB
TAF
KANB 292338Z 3000/3024 00000KT P6SM SCT100
      TEMPO 3011/3012 4SM BR
     FM301500 02006KT P6SM SCT040 SCT200=



000
FTUS44 KBMX 292338
TAFMGM
TAF
KMGM 292338Z 3000/3024 02006KT P6SM VCTS SCT050CB BKN120
     FM300100 30003KT P6SM SCT100
      TEMPO 3010/3012 4SM BR
     FM301500 02007KT P6SM SCT040 SCT200
     FM301800 34008KT P6SM VCTS SCT040CB=



000
FTUS44 KBMX 292201 AAA
TAFMGM
TAF AMD
KMGM 292201Z 2922/3018 32009KT 6SM SHRA VCTS BKN050CB
     FM292330 02012G22KT 2SM TSRA SCT020 BKN050CB OVC100
     FM300100 30003KT P6SM SCT040 SCT100 SCT200
      TEMPO 3011/3012 4SM BR=



000
FTUS44 KBMX 292027 AAA
TAFTCL
TAF AMD
KTCL 292027Z 2920/3018 35009KT 6SM SHRA VCTS SCT025 BKN050CB
      TEMPO 2920/2922 VRB12G25KT 3SM TSRA
     FM300100 33003KT P6SM SCT040 SCT100 SCT200
      TEMPO 3011/3012 4SM BR=



000
FTUS44 KBMX 291956 AAA
TAFEET
TAF AMD
KEET 291956Z 2920/3018 34008KT 6SM SHRA VCTS BKN040CB
      TEMPO 2920/2921 VRB15G35KT 3SM TSRA
     FM300100 00000KT P6SM SCT040 SCT100 SCT200
      TEMPO 3011/3012 4SM BR=



000
FTUS44 KBMX 291917 AAA
TAFANB
TAF AMD
KANB 291917Z 2919/3018 34008KT P6SM VCTS BKN050CB
      TEMPO 2919/2921 VRB12G25KT 3SM TSRA
     FM300100 VRB02KT P6SM SCT040 SCT100 SCT200
      TEMPO 3011/3012 4SM BR=



000
FTUS44 KBMX 291737
TAFEET
TAF
KEET 291737Z 2918/3018 34008KT 6SM SHRA VCTS BKN040CB
      TEMPO 2918/2921 VRB12G25KT 3SM TSRA
     FM300100 00000KT P6SM SCT040 SCT100 SCT200
      TEMPO 3011/3012 4SM BR=



000
FTUS44 KBMX 291737
TAFANB
TAF
KANB 291737Z 2918/3018 34008KT P6SM VCTS SCT050CB
     FM300100 VRB02KT P6SM SCT040 SCT100 SCT200
      TEMPO 3011/3012 4SM BR=



000
FTUS44 KBMX 291737
TAFBHM
TAF
KBHM 291737Z 2918/3018 35008KT 6SM SHRA VCTS BKN050CB
      TEMPO 2918/2921 VRB12G25KT 3SM TSRA
     FM300100 36004KT P6SM SCT040 SCT100 SCT200=



000
FTUS44 KBMX 291737
TAFTOI
TAF
KTOI 291737Z 2918/3018 34009KT 6SM SHRA VCTS BKN050CB
      TEMPO 2918/2922 VRB12G25KT 3SM TSRA
     FM300300 00000KT P6SM SCT040 SCT100 SCT200
      TEMPO 3011/3012 4SM BR=



000
FTUS44 KBMX 291737
TAFMGM
TAF
KMGM 291737Z 2918/3018 32009KT 6SM SHRA VCTS BKN050CB
      TEMPO 2918/2921 VRB12G25KT 3SM TSRA
     FM300200 30003KT P6SM SCT040 SCT100 SCT200
      TEMPO 3011/3012 4SM BR=



000
FTUS44 KBMX 291737
TAFTCL
TAF
KTCL 291737Z 2918/3018 35009KT 6SM SHRA VCTS BKN050CB
      TEMPO 2918/2921 VRB12G25KT 3SM TSRA
     FM300100 33003KT P6SM SCT040 SCT100 SCT200
      TEMPO 3011/3012 4SM BR=



000
FTUS44 KBMX 291702 AAB
TAFTCL
TAF AMD
KTCL 291702Z 2917/3012 35009KT P6SM VCTS BKN050CB
      TEMPO 2917/2920 3SM TSRA
     FM300100 33003KT P6SM SCT040 SCT100 SCT200
      TEMPO 3011/3012 4SM BR=



000
FTUS44 KBMX 291658 AAB
TAFMGM
TAF AMD
KMGM 291658Z 2917/3012 32008KT 6SM SHRA VCTS BKN050CB
      TEMPO 2917/2920 3SM TSRA
     FM300100 32003KT P6SM SCT040 SCT100 SCT200
      TEMPO 3011/3012 4SM BR=



000
FTUS44 KBMX 291626 AAA
TAFMGM
TAF AMD
KMGM 291626Z 2916/3012 34008KT 6SM SHRA VCTS BKN050CB
     FM300100 32003KT P6SM SCT040 SCT100 SCT200
      TEMPO 3011/3012 4SM BR=



000
FTUS44 KBMX 291626 AAA
TAFMGM
TAF AMD
KMGM 291626Z 2916/3012 34008KT 6SM SHRA VCTS BKN050CB
     FM300100 32003KT P6SM SCT040 SCT100 SCT200
      TEMPO 3011/3012 4SM BR=



000
FTUS44 KBMX 291614 AAA
TAFTCL
TAF AMD
KTCL 291614Z 2916/3012 35009KT P6SM VCTS SCT040CB SCT150
     FM300100 33003KT P6SM SCT040 SCT100 SCT200
      TEMPO 3011/3012 4SM BR=



000
FTUS44 KBMX 291354 AAA
TAFANB
TAF AMD
KANB 291354Z 2914/3012 34008KT P6SM VCTS SCT050CB
     FM300100 33003KT P6SM SCT040 SCT100 SCT200
      TEMPO 3011/3012 4SM BR=



000
FTUS44 KBMX 291354 AAA
TAFANB
TAF AMD
KANB 291354Z 2914/3012 34008KT P6SM VCTS SCT050CB
     FM300100 33003KT P6SM SCT040 SCT100 SCT200
      TEMPO 3011/3012 4SM BR=



000
FTUS44 KBMX 291140
TAFBHM
TAF
KBHM 291140Z 2912/3012 VRB03KT P6SM VCSH SCT040 SCT100
     FM291800 34008KT P6SM VCTS BKN040CB
     FM300100 35004KT P6SM SCT040 SCT100 SCT200=



000
FTUS44 KBMX 291140
TAFEET
TAF
KEET 291140Z 2912/3012 VRB03KT P6SM VCSH SCT040
     FM291800 34008KT P6SM VCTS BKN040CB
     FM300100 33003KT P6SM SCT040 SCT100 SCT200
      TEMPO 3011/3012 4SM BR=



000
FTUS44 KBMX 291140
TAFANB
TAF
KANB 291140Z 2912/3012 00000KT 6SM BR SCT040 SCT250
     FM291300 34006KT P6SM VCSH SCT040
     FM291700 34008KT P6SM VCTS SCT040CB
     FM300100 33003KT P6SM SCT040 SCT100 SCT200
      TEMPO 3011/3012 4SM BR=



000
FTUS44 KBMX 291140
TAFTCL
TAF
KTCL 291140Z 2912/3012 00000KT 5SM BR SCT250
     FM291300 35005KT P6SM SCT040
     FM291800 34008KT P6SM VCTS SCT040CB SCT150
     FM300100 33003KT P6SM SCT040 SCT100 SCT200
      TEMPO 3011/3012 4SM BR=



000
FTUS44 KBMX 291140
TAFEET
TAF
KEET 291140Z 2912/3012 VRB03KT P6SM VCSH SCT040
     FM291800 34008KT P6SM VCTS BKN040CB
     FM300100 33003KT P6SM SCT040 SCT100 SCT200
      TEMPO 3011/3012 4SM BR=



000
FTUS44 KBMX 291140
TAFTOI
TAF
KTOI 291140Z 2912/3012 00000KT 6SM BR FEW250
     FM291400 33005KT P6SM VCSH SCT040
     FM291700 31008KT P6SM VCTS BKN040CB
     FM300100 32003KT P6SM SCT040 SCT100 SCT200
      TEMPO 3011/3012 4SM BR=



000
FTUS44 KBMX 291140
TAFTCL
TAF
KTCL 291140Z 2912/3012 00000KT 5SM BR SCT250
     FM291300 35005KT P6SM SCT040
     FM291800 34008KT P6SM VCTS SCT040CB SCT150
     FM300100 33003KT P6SM SCT040 SCT100 SCT200
      TEMPO 3011/3012 4SM BR=



000
FTUS44 KBMX 291140
TAFMGM
TAF
KMGM 291140Z 2912/3012 00000KT 6SM BR FEW250
     FM291400 32005KT P6SM VCSH SCT040
     FM291700 34008KT P6SM VCTS BKN040CB
     FM300100 32003KT P6SM SCT040 SCT100 SCT200
      TEMPO 3011/3012 4SM BR=



000
FTUS44 KBMX 291140
TAFANB
TAF
KANB 291140Z 2912/3012 00000KT 6SM BR SCT040 SCT250
     FM291300 34006KT P6SM VCSH SCT040
     FM291700 34008KT P6SM VCTS SCT040CB
     FM300100 33003KT P6SM SCT040 SCT100 SCT200
      TEMPO 3011/3012 4SM BR=



000
FTUS44 KBMX 291140
TAFBHM
TAF
KBHM 291140Z 2912/3012 VRB03KT P6SM VCSH SCT040 SCT100
     FM291800 34008KT P6SM VCTS BKN040CB
     FM300100 35004KT P6SM SCT040 SCT100 SCT200=



000
FTUS44 KBMX 291140
TAFMGM
TAF
KMGM 291140Z 2912/3012 00000KT 6SM BR FEW250
     FM291400 32005KT P6SM VCSH SCT040
     FM291700 34008KT P6SM VCTS BKN040CB
     FM300100 32003KT P6SM SCT040 SCT100 SCT200
      TEMPO 3011/3012 4SM BR=



000
FTUS44 KBMX 291140
TAFTOI
TAF
KTOI 291140Z 2912/3012 00000KT 6SM BR FEW250
     FM291400 33005KT P6SM VCSH SCT040
     FM291700 31008KT P6SM VCTS BKN040CB
     FM300100 32003KT P6SM SCT040 SCT100 SCT200
      TEMPO 3011/3012 4SM BR=



000
FTUS44 KBMX 290910 AAA
TAFBHM
TAF AMD
KBHM 290910Z 2909/3006 VRB03KT P6SM VCSH SCT040
     FM291800 34008KT P6SM VCTS SCT040CB=



000
FTUS44 KBMX 290910 CCA
TAFBHM
TAF COR
KBHM 290910Z 2909/3006 VRB03KT P6SM VCSH SCT040
      TEMPO 2910/2912 5SM SHRA BKN040
     FM291800 34008KT P6SM VCTS SCT040CB=



000
FTUS44 KBMX 290706 AAA
TAFTOI
TAF AMD
KTOI 290706Z 2907/3006 00000KT 5SM BR FEW250
     FM291400 33005KT P6SM VCSH SCT040
     FM292000 31008KT P6SM VCTS SCT040CB=



000
FTUS44 KBMX 290520
TAFTCL
TAF
KTCL 290520Z 2906/3006 VRB05KT P6SM SKC
     FM290800 00000KT 5SM BR SCT250
     FM291400 35005KT P6SM VCSH SCT040
     FM291800 34008KT P6SM VCTS SCT040CB=



000
FTUS44 KBMX 290520
TAFMGM
TAF
KMGM 290520Z 2906/3006 VRB02KT P6SM SCT250
     FM290900 00000KT 5SM BR FEW250
     FM291400 32005KT P6SM VCSH SCT040
     FM292000 34008KT P6SM VCTS SCT040CB=



000
FTUS44 KBMX 290520
TAFEET
TAF
KEET 290520Z 2906/3006 00000KT P6SM SCT250
     FM290800 00000KT 5SM BR SCT250
     FM291400 35006KT P6SM VCSH SCT040
     FM291800 34008KT P6SM VCTS SCT040CB=



000
FTUS44 KBMX 290520
TAFBHM
TAF
KBHM 290520Z 2906/3006 VRB03KT P6SM SCT250
     FM291400 35006KT P6SM VCSH SCT040
     FM291800 34008KT P6SM VCTS SCT040CB=



000
FTUS44 KBMX 290520
TAFTOI
TAF
KTOI 290520Z 2906/3006 00000KT P6SM SCT250
     FM290900 00000KT 5SM BR FEW250
     FM291400 33005KT P6SM VCSH SCT040
     FM292000 31008KT P6SM VCTS SCT040CB=



000
FTUS44 KBMX 290520
TAFANB
TAF
KANB 290520Z 2906/3006 VRB02KT P6SM SCT250
     FM290900 00000KT 5SM BR SCT250
     FM291400 34006KT P6SM VCSH SCT040
     FM291800 34008KT P6SM VCTS SCT040CB=



000
FTUS44 KBMX 282341
TAFMGM
TAF
KMGM 282341Z 2900/2924 29004KT P6SM FEW110
     FM290200 VRB02KT P6SM SCT250
     FM290900 00000KT 5SM BR FEW250
     FM291400 35005KT P6SM SCT040=



000
FTUS44 KBMX 282341
TAFEET
TAF
KEET 282341Z 2900/2924 12005KT P6SM VCTS SCT015 SCT050CB
     FM290200 00000KT P6SM SCT250
     FM290800 00000KT 5SM BR SCT250=



000
FTUS44 KBMX 282341
TAFTCL
TAF
KTCL 282341Z 2900/2924 VRB05KT P6SM SKC
     FM290800 00000KT 5SM BR SCT250
     FM291400 35005KT P6SM SCT040=



000
FTUS44 KBMX 282341
TAFTOI
TAF
KTOI 282341Z 2900/2924 30008KT P6SM VCTS BKN050CB BKN070
     FM290200 00000KT P6SM SCT250
     FM290900 00000KT 5SM BR FEW250
     FM291400 35005KT P6SM SCT040=



000
FTUS44 KBMX 282341
TAFANB
TAF
KANB 282341Z 2900/2924 09003KT P6SM VCTS FEW050CB BKN100
      TEMPO 2900/2902 03015G25KT 2SM TSRA BKN050CB
     FM290300 VRB02KT P6SM SCT250
     FM290900 00000KT 5SM BR SCT250
     FM291400 35006KT P6SM SCT040=



000
FTUS44 KBMX 282341
TAFBHM
TAF
KBHM 282341Z 2900/2924 34006KT P6SM FEW050 SCT120
     FM290200 VRB03KT P6SM SCT250
     FM291500 35006KT P6SM SCT040=



000
FTUS44 KBMX 282341
TAFMGM
TAF
KMGM 282341Z 2900/2924 29004KT P6SM FEW110
     FM290200 VRB02KT P6SM SCT250
     FM290900 00000KT 5SM BR FEW250
     FM291400 35005KT P6SM SCT040=



000
FTUS44 KBMX 282341
TAFTCL
TAF
KTCL 282341Z 2900/2924 VRB05KT P6SM SKC
     FM290800 00000KT 5SM BR SCT250
     FM291400 35005KT P6SM SCT040=



000
FTUS44 KBMX 282341
TAFANB
TAF
KANB 282341Z 2900/2924 09003KT P6SM VCTS FEW050CB BKN100
      TEMPO 2900/2902 03015G25KT 2SM TSRA BKN050CB
     FM290300 VRB02KT P6SM SCT250
     FM290900 00000KT 5SM BR SCT250
     FM291400 35006KT P6SM SCT040=



000
FTUS44 KBMX 282341
TAFTOI
TAF
KTOI 282341Z 2900/2924 30008KT P6SM VCTS BKN050CB BKN070
     FM290200 00000KT P6SM SCT250
     FM290900 00000KT 5SM BR FEW250
     FM291400 35005KT P6SM SCT040=



000
FTUS44 KBMX 282341
TAFBHM
TAF
KBHM 282341Z 2900/2924 34006KT P6SM FEW050 SCT120
     FM290200 VRB03KT P6SM SCT250
     FM291500 35006KT P6SM SCT040=



000
FTUS44 KBMX 282341
TAFEET
TAF
KEET 282341Z 2900/2924 12005KT P6SM VCTS SCT015 SCT050CB
     FM290200 00000KT P6SM SCT250
     FM290800 00000KT 5SM BR SCT250=



000
FTUS44 KBMX 282250 AAA
TAFEET
TAF AMD
KEET 282250Z 2823/2918 07012G25KT 4SM TSRA BKN050CB BKN120
     FM290000 32005KT P6SM VCTS SCT050CB BKN120
     FM290200 00000KT P6SM SCT250
     FM290800 00000KT 5SM BR SCT250=



000
FTUS44 KBMX 282217 AAB
TAFANB
TAF AMD
KANB 282217Z 2822/2918 36010G30KT 2SM +TSRA BKN050CB
     FM282330 30005KT 6SM SHRA VCTS SCT050CB
     FM290200 VRB02KT P6SM SCT250
     FM290900 00000KT 5SM BR SCT250=



000
FTUS44 KBMX 282217 AAB
TAFANB
TAF AMD
KANB 282217Z 2822/2918 36010G30KT 2SM +TSRA BKN050CB
     FM282330 30005KT 6SM SHRA VCTS SCT050CB
     FM290200 VRB02KT P6SM SCT250
     FM290900 00000KT 5SM BR SCT250=



000
FTUS44 KBMX 282155 AAA
TAFBHM
TAF AMD
KBHM 282155Z 2822/2918 32006KT 6SM SHRA VCTS SCT050CB
      TEMPO 2822/2823 TS BKN050CB
     FM290200 VRB03KT P6SM SCT250=



000
FTUS44 KBMX 282150 AAA
TAFANB
TAF AMD
KANB 282150Z 2822/2918 30005KT 6SM SHRA VCTS SCT050CB
     FM282215 34010G20KT 3SM TSRA BKN050CB
     FM282330 30005KT 6SM SHRA VCTS SCT050CB
     FM290200 VRB02KT P6SM SCT250
     FM290900 00000KT 5SM BR SCT250=



000
FTUS44 KBMX 282150 AAA
TAFANB
TAF AMD
KANB 282150Z 2822/2918 30005KT 6SM SHRA VCTS SCT050CB
     FM282215 34010G20KT 3SM TSRA BKN050CB
     FM282330 30005KT 6SM SHRA VCTS SCT050CB
     FM290200 VRB02KT P6SM SCT250
     FM290900 00000KT 5SM BR SCT250=



000
FTUS44 KBMX 282127 AAB
TAFMGM
TAF AMD
KMGM 282127Z 2821/2918 36009KT 6SM SHRA VCTS SCT050CB
     FM290200 VRB02KT P6SM SCT250
     FM290900 00000KT 5SM BR FEW250=



000
FTUS44 KBMX 282127 AAB
TAFMGM
TAF AMD
KMGM 282127Z 2821/2918 36009KT 6SM SHRA VCTS SCT050CB
     FM290200 VRB02KT P6SM SCT250
     FM290900 00000KT 5SM BR FEW250=



000
FTUS44 KBMX 282124 AAA
TAFTCL
TAF AMD
KTCL 282124Z 2821/2918 26007KT 6SM SHRA VCTS SCT050CB
     FM290200 28004KT P6SM SCT250
     FM290800 00000KT 5SM BR SCT250=



000
FTUS44 KBMX 282021 AAA
TAFMGM
TAF AMD
KMGM 282021Z 2820/2918 32006KT P6SM VCTS SCT050CB
      TEMPO 2820/2822 3SM TSRA BKN050CB
     FM290200 VRB02KT P6SM SCT250
     FM290900 00000KT 5SM BR FEW250=



000
FTUS44 KBMX 281725
TAFEET
TAF
KEET 281725Z 2818/2918 32005KT 6SM SHRA VCTS SCT050CB
     FM290200 00000KT P6SM SCT250
     FM290800 00000KT 5SM BR SCT250=



000
FTUS44 KBMX 281725
TAFBHM
TAF
KBHM 281725Z 2818/2918 32006KT 6SM SHRA VCTS SCT050CB
     FM290200 VRB03KT P6SM SCT250=



000
FTUS44 KBMX 281725
TAFANB
TAF
KANB 281725Z 2818/2918 30005KT 6SM SHRA VCTS SCT050CB
     FM290200 VRB02KT P6SM SCT250
     FM290900 00000KT 5SM BR SCT250=



000
FTUS44 KBMX 281725
TAFMGM
TAF
KMGM 281725Z 2818/2918 32006KT P6SM VCTS SCT050CB
     FM290200 VRB02KT P6SM SCT250
     FM290900 00000KT 5SM BR FEW250=



000
FTUS44 KBMX 281725
TAFTOI
TAF
KTOI 281725Z 2818/2918 33006KT P6SM VCTS SCT050CB
     FM290200 00000KT P6SM SCT250
     FM290900 00000KT 5SM BR FEW250=



000
FTUS44 KBMX 281725
TAFTCL
TAF
KTCL 281725Z 2818/2918 31005KT P6SM VCTS SCT050CB
     FM290200 28004KT P6SM SCT250
     FM290800 00000KT 5SM BR SCT250=



000
FTUS44 KBMX 281130
TAFANB
TAF
KANB 281130Z 2812/2912 00000KT 6SM BR SCT250
     FM281300 31003KT P6SM SCT250
     FM281700 32005KT P6SM VCTS SCT050CB
     FM290200 34004KT P6SM SCT250
     FM290900 00000KT 5SM BR SCT250=



000
FTUS44 KBMX 281130
TAFEET
TAF
KEET 281130Z 2812/2912 00000KT 6SM BR SCT250
     FM281300 31003KT P6SM SCT250
     FM281700 32005KT P6SM VCTS SCT050CB
     FM290200 29002KT P6SM SCT250
     FM290800 00000KT 5SM BR SCT250=



000
FTUS44 KBMX 281130
TAFMGM
TAF
KMGM 281130Z 2812/2912 00000KT 5SM BR SCT250
     FM281300 32003KT P6SM SCT250
     FM281700 30005KT P6SM VCTS SCT050CB
     FM290300 34004KT P6SM SCT250
     FM290900 00000KT 5SM BR FEW250=



000
FTUS44 KBMX 281130
TAFTCL
TAF
KTCL 281130Z 2812/2912 00000KT 5SM BR SCT250
     FM281300 35003KT P6SM SCT250
     FM281700 30005KT P6SM VCTS SCT050CB
     FM290200 28004KT P6SM SCT250
     FM290800 00000KT 5SM BR SCT250=



000
FTUS44 KBMX 281130
TAFTOI
TAF
KTOI 281130Z 2812/2912 00000KT 6SM BR SCT250
     FM281300 32003KT P6SM SCT250
     FM281700 34005KT P6SM VCTS SCT050CB
     FM290400 00000KT P6SM SCT250
     FM290900 00000KT 5SM BR FEW250=



000
FTUS44 KBMX 281130
TAFBHM
TAF
KBHM 281130Z 2812/2912 31003KT P6SM SCT250
     FM281700 32006KT P6SM VCTS SCT050CB
     FM290200 34004KT P6SM SCT250=



    US Dept of Commerce
    National Oceanic and Atmospheric Administration
    National Weather Service
    1325 East West Highway
    Silver Spring, MD 20910
    Page Author: NWS Internet Services Team
Disclaimer
Information Quality
Credits
Glossary
Privacy Policy
Freedom of Information Act (FOIA)
About Us
Career Opportunities